createdAt,value
2018-12-26T00:00:01.035Z,6.1
2018-12-26T00:15:01.037Z,6.1
2018-12-26T00:30:00.952Z,6.1
2018-12-26T00:45:01.018Z,6.1
2018-12-26T00:50:01.368Z,6.2
2018-12-26T01:00:01.020Z,6.2
2018-12-26T01:05:01.004Z,6.3
2018-12-26T01:15:00.964Z,6.4
2018-12-26T01:25:01.063Z,6.5
2018-12-26T01:30:00.932Z,6.5
2018-12-26T01:40:00.961Z,6.6
2018-12-26T01:45:00.977Z,6.6
2018-12-26T02:00:01.456Z,6.6
2018-12-26T02:15:01.407Z,6.6
2018-12-26T02:30:00.992Z,6.7
2018-12-26T02:45:00.975Z,6.7
2018-12-26T03:00:00.992Z,6.6
2018-12-26T03:15:01.172Z,6.6
2018-12-26T03:30:00.997Z,6.6
2018-12-26T03:45:01.003Z,6.7
2018-12-26T04:00:01.208Z,6.7
2018-12-26T04:15:01.168Z,6.7
2018-12-26T04:30:01.090Z,6.7
2018-12-26T04:40:01.074Z,6.8
2018-12-26T04:45:01.115Z,6.8
2018-12-26T04:50:00.944Z,6.9
2018-12-26T05:00:01.080Z,7.0
2018-12-26T05:15:01.043Z,7.1
2018-12-26T05:25:01.029Z,7.2
2018-12-26T05:30:00.951Z,7.2
2018-12-26T05:40:01.009Z,7.3
2018-12-26T05:45:01.084Z,7.3
2018-12-26T05:50:01.012Z,7.4
2018-12-26T06:00:01.297Z,7.4
2018-12-26T06:15:01.558Z,7.4
2018-12-26T06:25:00.826Z,7.3
2018-12-26T06:30:00.959Z,7.3
2018-12-26T06:40:00.963Z,7.2
2018-12-26T06:45:01.377Z,7.2
2018-12-26T07:00:00.972Z,7.2
2018-12-26T07:15:00.967Z,7.3
2018-12-26T07:30:01.099Z,7.4
2018-12-26T07:40:01.014Z,7.5
2018-12-26T07:45:01.237Z,7.5
2018-12-26T08:00:01.187Z,7.5
2018-12-26T08:15:00.991Z,7.5
2018-12-26T08:30:00.992Z,7.5
2018-12-26T08:40:00.992Z,7.6
2018-12-26T08:45:00.990Z,7.6
2018-12-26T09:00:01.001Z,7.6
2018-12-26T09:10:01.156Z,7.7
2018-12-26T09:15:01.003Z,7.7
2018-12-26T09:20:01.001Z,7.8
2018-12-26T09:30:01.009Z,7.8
2018-12-26T09:45:01.002Z,7.8
2018-12-26T10:00:01.025Z,7.8
2018-12-26T10:15:01.106Z,7.8
2018-12-26T10:30:01.034Z,7.8
2018-12-26T10:45:01.034Z,7.9
2018-12-26T11:00:01.047Z,7.9
2018-12-26T11:15:01.046Z,7.9
2018-12-26T11:20:01.036Z,7.8
2018-12-26T11:30:01.059Z,7.7
2018-12-26T11:45:01.050Z,7.6
2018-12-26T11:55:01.089Z,7.7
2018-12-26T12:00:01.051Z,7.7
2018-12-26T12:10:01.048Z,7.8
2018-12-26T12:15:01.099Z,7.8
2018-12-26T12:30:01.094Z,7.9
2018-12-26T12:40:01.216Z,7.8
2018-12-26T12:45:01.105Z,7.8
2018-12-26T13:00:01.099Z,7.8
2018-12-26T13:10:01.098Z,7.9
2018-12-26T13:15:01.112Z,7.9
2018-12-26T13:30:01.076Z,7.9
2018-12-26T13:40:01.109Z,8.0
2018-12-26T13:45:01.108Z,8.0
2018-12-26T13:55:01.065Z,8.1
2018-12-26T14:00:03.019Z,8.1
2018-12-26T14:05:01.078Z,8.2
2018-12-26T14:15:01.107Z,8.3
2018-12-26T14:30:01.092Z,8.4
2018-12-26T14:45:01.101Z,8.5
2018-12-26T15:00:01.122Z,8.5
2018-12-26T15:15:01.159Z,8.6
2018-12-26T15:30:01.118Z,8.7
2018-12-26T15:45:01.117Z,8.7
2018-12-26T16:00:01.259Z,8.8
2018-12-26T16:15:01.110Z,8.8
2018-12-26T16:30:01.254Z,8.8
2018-12-26T16:45:01.381Z,8.8
2018-12-26T16:50:01.254Z,8.7
2018-12-26T17:00:01.323Z,8.6
2018-12-26T17:15:01.328Z,8.5
2018-12-26T17:30:01.271Z,8.5
2018-12-26T17:45:01.373Z,8.5
2018-12-26T17:50:01.142Z,8.4
2018-12-26T18:00:01.455Z,8.4
2018-12-26T18:15:01.285Z,8.4
2018-12-26T18:30:01.389Z,8.4
2018-12-26T18:45:01.279Z,8.4
2018-12-26T18:50:01.143Z,8.3
2018-12-26T19:00:01.356Z,8.3
2018-12-26T19:15:01.294Z,8.2
2018-12-26T19:30:02.828Z,8.1
2018-12-26T19:45:01.394Z,8.1
2018-12-26T20:00:01.480Z,8.0
2018-12-26T20:15:01.313Z,8.0
2018-12-26T20:30:01.323Z,7.9
2018-12-26T20:45:01.251Z,7.8
2018-12-26T21:00:01.406Z,7.7
2018-12-26T21:15:01.332Z,7.7
2018-12-26T21:20:01.267Z,7.6
2018-12-26T21:30:01.366Z,7.6
2018-12-26T21:45:01.280Z,7.6
2018-12-26T22:00:01.351Z,7.5
2018-12-26T22:15:01.452Z,7.5
2018-12-26T22:20:01.212Z,7.4
2018-12-26T22:30:01.292Z,7.4
2018-12-26T22:45:01.307Z,7.4
2018-12-26T23:00:01.402Z,7.4
2018-12-26T23:15:01.388Z,7.4
2018-12-26T23:25:01.361Z,7.3
2018-12-26T23:30:01.236Z,7.3
2018-12-26T23:45:01.372Z,7.3
